sensor_id;sensor_type;location;lat;lon;timestamp;pressure;altitude;pressure_sealevel;temperature;humidity
41140;BME280;26881;48.784;9.192;2023-02-15T00:04:09;99952.28;;;2.79;85.50
41140;BME280;26881;48.784;9.192;2023-02-15T00:09:33;99942.00;;;2.71;85.96
41140;BME280;26881;48.784;9.192;2023-02-15T00:14:55;99928.22;;;2.68;86.20
41140;BME280;26881;48.784;9.192;2023-02-15T00:20:17;99933.31;;;2.82;85.33
41140;BME280;26881;48.784;9.192;2023-02-15T00:25:39;99929.91;;;2.78;85.15
41140;BME280;26881;48.784;9.192;2023-02-15T00:31:06;99930.84;;;2.66;85.17
41140;BME280;26881;48.784;9.192;2023-02-15T00:36:29;99930.84;;;2.62;85.84
41140;BME280;26881;48.784;9.192;2023-02-15T00:41:50;99924.84;;;2.60;85.84
41140;BME280;26881;48.784;9.192;2023-02-15T00:47:12;99923.09;;;2.62;85.43
41140;BME280;26881;48.784;9.192;2023-02-15T00:52:34;99936.03;;;2.57;85.14
41140;BME280;26881;48.784;9.192;2023-02-15T00:57:56;99933.53;;;2.45;85.26
41140;BME280;26881;48.784;9.192;2023-02-15T01:03:19;99930.94;;;2.37;85.47
41140;BME280;26881;48.784;9.192;2023-02-15T01:08:41;99916.28;;;2.45;86.15
41140;BME280;26881;48.784;9.192;2023-02-15T01:14:03;99924.03;;;2.42;85.51
41140;BME280;26881;48.784;9.192;2023-02-15T01:19:25;99918.94;;;2.25;86.68
41140;BME280;26881;48.784;9.192;2023-02-15T01:24:49;99918.06;;;2.36;85.35
41140;BME280;26881;48.784;9.192;2023-02-15T01:30:12;99928.41;;;2.28;85.91
41140;BME280;26881;48.784;9.192;2023-02-15T01:35:36;99921.50;;;2.30;85.88
41140;BME280;26881;48.784;9.192;2023-02-15T01:40:58;99917.25;;;2.18;85.84
41140;BME280;26881;48.784;9.192;2023-02-15T01:46:46;99917.28;;;2.15;85.52
41140;BME280;26881;48.784;9.192;2023-02-15T01:52:14;99917.31;;;2.03;86.12
41140;BME280;26881;48.784;9.192;2023-02-15T01:57:37;99903.50;;;2.13;86.13
41140;BME280;26881;48.784;9.192;2023-02-15T02:03:00;99904.38;;;2.04;85.65
41140;BME280;26881;48.784;9.192;2023-02-15T02:08:23;99901.84;;;1.97;85.53
41140;BME280;26881;48.784;9.192;2023-02-15T02:13:46;99901.00;;;1.81;85.88
41140;BME280;26881;48.784;9.192;2023-02-15T02:31:11;99899.28;;;1.83;85.95
41140;BME280;26881;48.784;9.192;2023-02-15T02:42:35;99887.22;;;1.94;84.45
41140;BME280;26881;48.784;9.192;2023-02-15T02:48:06;99892.47;;;1.68;86.10
41140;BME280;26881;48.784;9.192;2023-02-15T02:53:31;99896.72;;;1.74;85.59
41140;BME280;26881;48.784;9.192;2023-02-15T02:58:59;99892.47;;;1.63;85.60
41140;BME280;26881;48.784;9.192;2023-02-15T03:04:28;99885.56;;;1.62;86.05
41140;BME280;26881;48.784;9.192;2023-02-15T03:09:53;99883.00;;;1.67;86.14
41140;BME280;26881;48.784;9.192;2023-02-15T03:15:19;99870.94;;;1.84;84.85
41140;BME280;26881;48.784;9.192;2023-02-15T03:20:42;99877.00;;;1.57;85.27
41140;BME280;26881;48.784;9.192;2023-02-15T03:26:06;99879.56;;;1.68;85.33
41140;BME280;26881;48.784;9.192;2023-02-15T03:31:32;99875.31;;;1.41;86.00
41140;BME280;26881;48.784;9.192;2023-02-15T03:37:01;99875.31;;;1.47;85.06
41140;BME280;26881;48.784;9.192;2023-02-15T03:42:32;99887.31;;;1.23;86.71
41140;BME280;26881;48.784;9.192;2023-02-15T03:47:57;99885.63;;;1.32;86.29
41140;BME280;26881;48.784;9.192;2023-02-15T03:53:22;99884.72;;;1.46;85.44
41140;BME280;26881;48.784;9.192;2023-02-15T03:58:45;99884.75;;;1.22;85.39
41140;BME280;26881;48.784;9.192;2023-02-15T04:04:35;99882.19;;;1.08;85.93
41140;BME280;26881;48.784;9.192;2023-02-15T04:09:57;99889.03;;;1.18;85.71
41140;BME280;26881;48.784;9.192;2023-02-15T04:15:37;99881.31;;;1.11;85.90
41140;BME280;26881;48.784;9.192;2023-02-15T04:21:19;99888.16;;;1.02;86.09
41140;BME280;26881;48.784;9.192;2023-02-15T04:27:00;99880.44;;;1.07;86.40
41140;BME280;26881;48.784;9.192;2023-02-15T04:32:22;99875.28;;;1.12;85.47
41140;BME280;26881;48.784;9.192;2023-02-15T04:37:44;99876.16;;;0.95;85.38
41140;BME280;26881;48.784;9.192;2023-02-15T04:43:05;99872.72;;;0.95;86.37
41140;BME280;26881;48.784;9.192;2023-02-15T04:48:27;99867.56;;;0.87;85.71
41140;BME280;26881;48.784;9.192;2023-02-15T04:53:49;99846.97;;;1.09;85.55
41140;BME280;26881;48.784;9.192;2023-02-15T04:59:11;99840.09;;;1.17;84.97
41140;BME280;26881;48.784;9.192;2023-02-15T05:04:33;99843.53;;;0.93;85.14
41140;BME280;26881;48.784;9.192;2023-02-15T05:09:55;99854.69;;;0.92;85.48
41140;BME280;26881;48.784;9.192;2023-02-15T05:15:17;99862.44;;;0.96;85.67
41140;BME280;26881;48.784;9.192;2023-02-15T05:20:38;99863.28;;;1.00;85.64
41140;BME280;26881;48.784;9.192;2023-02-15T05:26:00;99868.44;;;0.97;84.36
41140;BME280;26881;48.784;9.192;2023-02-15T05:31:40;99866.66;;;0.70;84.56
41140;BME280;26881;48.784;9.192;2023-02-15T05:37:02;99867.56;;;0.75;83.77
41140;BME280;26881;48.784;9.192;2023-02-15T05:42:24;99866.66;;;0.60;84.09
41140;BME280;26881;48.784;9.192;2023-02-15T05:47:46;99873.56;;;0.74;84.31
41140;BME280;26881;48.784;9.192;2023-02-15T05:53:08;99866.69;;;0.85;83.47
41140;BME280;26881;48.784;9.192;2023-02-15T05:58:32;99862.41;;;0.99;82.22
41140;BME280;26881;48.784;9.192;2023-02-15T06:03:54;99865.84;;;0.95;81.39
41140;BME280;26881;48.784;9.192;2023-02-15T06:09:17;99870.97;;;0.65;84.17
41140;BME280;26881;48.784;9.192;2023-02-15T06:14:41;99876.78;;;0.07;86.41
41140;BME280;26881;48.784;9.192;2023-02-15T06:20:04;99876.03;;;0.34;85.97
41140;BME280;26881;48.784;9.192;2023-02-15T06:25:26;99884.66;;;0.51;84.73
41140;BME280;26881;48.784;9.192;2023-02-15T06:30:47;99883.66;;;0.14;86.42
41140;BME280;26881;48.784;9.192;2023-02-15T06:36:09;99884.59;;;0.27;86.58
41140;BME280;26881;48.784;9.192;2023-02-15T06:41:31;99889.81;;;0.54;85.54
41140;BME280;26881;48.784;9.192;2023-02-15T06:46:53;99899.13;;;0.23;86.58
41140;BME280;26881;48.784;9.192;2023-02-15T06:52:15;99889.66;;;0.08;87.24
41140;BME280;26881;48.784;9.192;2023-02-15T06:57:37;99896.63;;;0.31;85.71
41140;BME280;26881;48.784;9.192;2023-02-15T07:02:59;99899.22;;;0.35;86.32
41140;BME280;26881;48.784;9.192;2023-02-15T07:08:20;99900.00;;;0.20;86.60
41140;BME280;26881;48.784;9.192;2023-02-15T07:13:42;99906.06;;;0.39;86.17
41140;BME280;26881;48.784;9.192;2023-02-15T07:19:04;99908.66;;;0.41;86.12
41140;BME280;26881;48.784;9.192;2023-02-15T07:24:26;99918.06;;;0.36;86.06
41140;BME280;26881;48.784;9.192;2023-02-15T07:29:48;99917.25;;;0.48;86.72
41140;BME280;26881;48.784;9.192;2023-02-15T07:35:09;99918.13;;;0.56;86.72
41140;BME280;26881;48.784;9.192;2023-02-15T07:40:32;99923.25;;;0.45;87.18
41140;BME280;26881;48.784;9.192;2023-02-15T07:45:54;99904.31;;;0.26;87.41
41140;BME280;26881;48.784;9.192;2023-02-15T07:51:20;99898.31;;;0.29;87.33
41140;BME280;26881;48.784;9.192;2023-02-15T07:56:42;99889.72;;;0.22;87.74
41140;BME280;26881;48.784;9.192;2023-02-15T08:02:08;99891.53;;;0.55;86.90
41140;BME280;26881;48.784;9.192;2023-02-15T08:07:30;99898.38;;;0.46;86.67
41140;BME280;26881;48.784;9.192;2023-02-15T08:12:52;99903.50;;;0.44;87.20
41140;BME280;26881;48.784;9.192;2023-02-15T08:18:14;99911.28;;;0.58;86.63
41140;BME280;26881;48.784;9.192;2023-02-15T08:23:36;99909.56;;;0.65;85.94
41140;BME280;26881;48.784;9.192;2023-02-15T08:28:58;99905.25;;;0.51;86.94
41140;BME280;26881;48.784;9.192;2023-02-15T08:34:20;99901.88;;;0.63;87.01
41140;BME280;26881;48.784;9.192;2023-02-15T08:39:42;99901.00;;;0.67;87.20
41140;BME280;26881;48.784;9.192;2023-02-15T08:45:05;99900.19;;;0.85;86.49
41140;BME280;26881;48.784;9.192;2023-02-15T08:50:27;99910.50;;;0.91;86.85
41140;BME280;26881;48.784;9.192;2023-02-15T08:55:58;99901.88;;;0.86;86.49
41140;BME280;26881;48.784;9.192;2023-02-15T09:01:23;99889.88;;;0.82;86.05
41140;BME280;26881;48.784;9.192;2023-02-15T09:06:46;99893.34;;;1.09;85.57
41140;BME280;26881;48.784;9.192;2023-02-15T09:12:09;99883.00;;;0.93;86.67
41140;BME280;26881;48.784;9.192;2023-02-15T09:17:31;99883.00;;;0.93;86.91
41140;BME280;26881;48.784;9.192;2023-02-15T09:22:53;99881.31;;;1.38;85.41
41140;BME280;26881;48.784;9.192;2023-02-15T09:28:19;99877.88;;;1.33;85.69
41140;BME280;26881;48.784;9.192;2023-02-15T09:33:42;99870.13;;;1.30;86.18
41140;BME280;26881;48.784;9.192;2023-02-15T09:39:10;99877.88;;;1.18;87.26
41140;BME280;26881;48.784;9.192;2023-02-15T09:56:14;99843.47;;;1.63;84.98
41140;BME280;26881;48.784;9.192;2023-02-15T10:01:53;99847.78;;;1.61;84.69
41140;BME280;26881;48.784;9.192;2023-02-15T10:13:27;99834.81;;;1.81;84.31
41140;BME280;26881;48.784;9.192;2023-02-15T10:25:28;99827.84;;;2.05;83.65
41140;BME280;26881;48.784;9.192;2023-02-15T10:31:36;99826.13;;;2.05;83.48
41140;BME280;26881;48.784;9.192;2023-02-15T10:54:17;99797.34;;;2.70;81.37
41140;BME280;26881;48.784;9.192;2023-02-15T11:05:38;99785.75;;;3.15;80.08
41140;BME280;26881;48.784;9.192;2023-02-15T11:11:09;99780.38;;;3.37;78.81
41140;BME280;26881;48.784;9.192;2023-02-15T11:16:40;99773.16;;;3.65;77.25
41140;BME280;26881;48.784;9.192;2023-02-15T11:22:06;99772.03;;;3.86;77.06
41140;BME280;26881;48.784;9.192;2023-02-15T11:27:31;99768.38;;;4.06;76.76
41140;BME280;26881;48.784;9.192;2023-02-15T11:32:58;99764.38;;;4.42;74.11
41140;BME280;26881;48.784;9.192;2023-02-15T11:38:27;99761.31;;;4.73;73.36
41140;BME280;26881;48.784;9.192;2023-02-15T11:44:05;99757.63;;;4.88;72.73
41140;BME280;26881;48.784;9.192;2023-02-15T11:49:33;99755.75;;;4.96;72.27
41140;BME280;26881;48.784;9.192;2023-02-15T11:54:56;99751.91;;;5.18;71.54
41140;BME280;26881;48.784;9.192;2023-02-15T12:00:33;99753.22;;;5.41;70.74
41140;BME280;26881;48.784;9.192;2023-02-15T12:06:01;99757.25;;;5.56;70.82
41140;BME280;26881;48.784;9.192;2023-02-15T12:11:34;99747.34;;;5.75;70.31
41140;BME280;26881;48.784;9.192;2023-02-15T12:16:56;99743.31;;;6.03;70.09
41140;BME280;26881;48.784;9.192;2023-02-15T12:22:22;99726.38;;;6.24;69.78
41140;BME280;26881;48.784;9.192;2023-02-15T12:27:45;99720.50;;;6.55;69.05
41140;BME280;26881;48.784;9.192;2023-02-15T12:33:17;99714.44;;;6.89;67.81
41140;BME280;26881;48.784;9.192;2023-02-15T12:44:35;99712.53;;;7.28;66.93
41140;BME280;26881;48.784;9.192;2023-02-15T12:50:21;99708.31;;;7.55;66.04
41140;BME280;26881;48.784;9.192;2023-02-15T12:55:52;99695.56;;;7.76;65.63
41140;BME280;26881;48.784;9.192;2023-02-15T13:01:16;99678.56;;;7.92;64.98
41140;BME280;26881;48.784;9.192;2023-02-15T13:06:47;99681.84;;;7.99;65.15
41140;BME280;26881;48.784;9.192;2023-02-15T13:12:20;99672.59;;;7.90;65.00
41140;BME280;26881;48.784;9.192;2023-02-15T13:17:43;99646.47;;;7.92;65.48
41140;BME280;26881;48.784;9.192;2023-02-15T13:23:13;99656.69;;;7.98;65.37
41140;BME280;26881;48.784;9.192;2023-02-15T13:28:46;99649.03;;;7.93;65.97
41140;BME280;26881;48.784;9.192;2023-02-15T13:34:12;99639.56;;;7.91;67.51
41140;BME280;26881;48.784;9.192;2023-02-15T13:39:44;99639.22;;;8.01;66.95
41140;BME280;26881;48.784;9.192;2023-02-15T14:08:07;99615.44;;;8.12;66.54
41140;BME280;26881;48.784;9.192;2023-02-15T14:13:44;99613.75;;;8.11;65.39
41140;BME280;26881;48.784;9.192;2023-02-15T14:30:49;99610.44;;;8.33;62.04
41140;BME280;26881;48.784;9.192;2023-02-15T14:36:16;99609.34;;;8.38;62.10
41140;BME280;26881;48.784;9.192;2023-02-15T14:41:53;99609.94;;;8.48;60.71
41140;BME280;26881;48.784;9.192;2023-02-15T14:47:24;99603.59;;;8.55;61.44
41140;BME280;26881;48.784;9.192;2023-02-15T14:53:15;99600.66;;;8.64;62.06
41140;BME280;26881;48.784;9.192;2023-02-15T14:58:37;99596.09;;;8.71;61.87
41140;BME280;26881;48.784;9.192;2023-02-15T15:04:06;99609.81;;;8.76;62.48
41140;BME280;26881;48.784;9.192;2023-02-15T15:09:31;99610.63;;;8.78;62.05
41140;BME280;26881;48.784;9.192;2023-02-15T15:14:55;99608.56;;;8.88;61.58
41140;BME280;26881;48.784;9.192;2023-02-15T15:25:52;99610.38;;;8.86;61.47
41140;BME280;26881;48.784;9.192;2023-02-15T15:31:26;99600.00;;;8.84;61.98
41140;BME280;26881;48.784;9.192;2023-02-15T15:42:59;99604.59;;;8.76;62.16
41140;BME280;26881;48.784;9.192;2023-02-15T15:48:37;99596.84;;;8.75;62.24
41140;BME280;26881;48.784;9.192;2023-02-15T15:54:02;99606.69;;;8.67;62.39
41140;BME280;26881;48.784;9.192;2023-02-15T15:59:31;99607.16;;;8.53;63.29
41140;BME280;26881;48.784;9.192;2023-02-15T16:04:53;99612.50;;;8.50;63.29
41140;BME280;26881;48.784;9.192;2023-02-15T16:10:22;99609.22;;;8.43;63.65
41140;BME280;26881;48.784;9.192;2023-02-15T16:15:51;99600.88;;;8.32;64.05
41140;BME280;26881;48.784;9.192;2023-02-15T16:21:20;99603.22;;;8.14;64.73
41140;BME280;26881;48.784;9.192;2023-02-15T16:32:19;99615.34;;;7.87;65.96
41140;BME280;26881;48.784;9.192;2023-02-15T16:37:41;99619.03;;;7.80;66.99
41140;BME280;26881;48.784;9.192;2023-02-15T16:43:06;99624.41;;;7.75;67.24
41140;BME280;26881;48.784;9.192;2023-02-15T16:48:33;99627.94;;;7.73;66.54
41140;BME280;26881;48.784;9.192;2023-02-15T16:54:06;99628.13;;;7.67;66.27
41140;BME280;26881;48.784;9.192;2023-02-15T16:59:49;99634.38;;;7.61;66.82
41140;BME280;26881;48.784;9.192;2023-02-15T17:10:37;99639.69;;;7.28;67.61
41140;BME280;26881;48.784;9.192;2023-02-15T17:21:30;99651.31;;;7.15;68.57
41140;BME280;26881;48.784;9.192;2023-02-15T17:26:55;99662.31;;;6.93;69.69
41140;BME280;26881;48.784;9.192;2023-02-15T17:32:26;99661.03;;;6.75;70.57
41140;BME280;26881;48.784;9.192;2023-02-15T17:37:49;99669.88;;;6.68;71.01
41140;BME280;26881;48.784;9.192;2023-02-15T17:43:11;99664.88;;;6.62;71.89
41140;BME280;26881;48.784;9.192;2023-02-15T17:48:34;99670.13;;;6.59;72.11
41140;BME280;26881;48.784;9.192;2023-02-15T17:53:57;99663.34;;;6.53;72.57
41140;BME280;26881;48.784;9.192;2023-02-15T17:59:37;99665.25;;;6.45;73.26
41140;BME280;26881;48.784;9.192;2023-02-15T18:05:18;99663.78;;;6.37;74.74
41140;BME280;26881;48.784;9.192;2023-02-15T18:10:59;99674.31;;;6.29;74.78
41140;BME280;26881;48.784;9.192;2023-02-15T18:16:43;99671.63;;;6.33;74.57
41140;BME280;26881;48.784;9.192;2023-02-15T18:22:17;99666.75;;;6.20;74.71
41140;BME280;26881;48.784;9.192;2023-02-15T18:27:39;99675.53;;;6.16;75.16
41140;BME280;26881;48.784;9.192;2023-02-15T18:33:01;99673.88;;;6.11;75.09
41140;BME280;26881;48.784;9.192;2023-02-15T18:38:23;99677.56;;;6.01;75.46
41140;BME280;26881;48.784;9.192;2023-02-15T18:43:45;99680.25;;;5.97;75.67
41140;BME280;26881;48.784;9.192;2023-02-15T18:49:09;99682.19;;;5.87;75.60
41140;BME280;26881;48.784;9.192;2023-02-15T18:54:31;99674.47;;;5.84;76.08
41140;BME280;26881;48.784;9.192;2023-02-15T18:59:52;99664.28;;;5.75;76.46
41140;BME280;26881;48.784;9.192;2023-02-15T19:05:14;99666.34;;;5.59;76.42
41140;BME280;26881;48.784;9.192;2023-02-15T19:10:38;99657.66;;;5.61;76.62
41140;BME280;26881;48.784;9.192;2023-02-15T19:16:00;99655.41;;;5.44;76.75
41140;BME280;26881;48.784;9.192;2023-02-15T19:21:23;99659.03;;;5.37;77.68
41140;BME280;26881;48.784;9.192;2023-02-15T19:26:46;99645.34;;;5.29;76.60
41140;BME280;26881;48.784;9.192;2023-02-15T19:32:10;99650.41;;;5.37;76.39
41140;BME280;26881;48.784;9.192;2023-02-15T19:37:40;99648.38;;;5.49;74.61
41140;BME280;26881;48.784;9.192;2023-02-15T19:43:11;99651.78;;;5.53;73.35
41140;BME280;26881;48.784;9.192;2023-02-15T19:48:35;99646.91;;;5.38;73.91
41140;BME280;26881;48.784;9.192;2023-02-15T19:53:57;99645.16;;;5.38;74.83
41140;BME280;26881;48.784;9.192;2023-02-15T19:59:30;99648.00;;;5.27;76.19
41140;BME280;26881;48.784;9.192;2023-02-15T20:04:55;99634.31;;;5.19;77.22
41140;BME280;26881;48.784;9.192;2023-02-15T20:10:30;99633.53;;;5.16;77.18
41140;BME280;26881;48.784;9.192;2023-02-15T20:15:52;99631.75;;;5.18;77.27
41140;BME280;26881;48.784;9.192;2023-02-15T20:21:14;99639.63;;;5.13;77.37
41140;BME280;26881;48.784;9.192;2023-02-15T20:26:37;99645.81;;;5.06;77.42
41140;BME280;26881;48.784;9.192;2023-02-15T20:31:59;99640.75;;;4.98;77.12
41140;BME280;26881;48.784;9.192;2023-02-15T20:37:23;99636.63;;;4.90;77.47
41140;BME280;26881;48.784;9.192;2023-02-15T20:42:49;99626.31;;;4.86;77.52
41140;BME280;26881;48.784;9.192;2023-02-15T20:48:11;99623.94;;;4.74;77.88
41140;BME280;26881;48.784;9.192;2023-02-15T20:53:33;99631.69;;;4.76;77.28
41140;BME280;26881;48.784;9.192;2023-02-15T20:58:54;99621.63;;;4.59;77.43
41140;BME280;26881;48.784;9.192;2023-02-15T21:04:22;99624.69;;;4.81;77.02
41140;BME280;26881;48.784;9.192;2023-02-15T21:09:46;99619.59;;;4.76;76.93
41140;BME280;26881;48.784;9.192;2023-02-15T21:15:37;99621.25;;;4.80;76.18
41140;BME280;26881;48.784;9.192;2023-02-15T21:21:04;99622.19;;;4.75;75.76
41140;BME280;26881;48.784;9.192;2023-02-15T21:26:26;99620.38;;;4.80;75.17
41140;BME280;26881;48.784;9.192;2023-02-15T21:31:48;99624.72;;;4.79;75.24
41140;BME280;26881;48.784;9.192;2023-02-15T21:37:31;99616.56;;;4.99;74.00
41140;BME280;26881;48.784;9.192;2023-02-15T21:42:56;99613.31;;;4.88;74.06
41140;BME280;26881;48.784;9.192;2023-02-15T21:48:36;99612.56;;;4.81;74.08
41140;BME280;26881;48.784;9.192;2023-02-15T21:53:58;99615.19;;;4.80;74.05
41140;BME280;26881;48.784;9.192;2023-02-15T21:59:20;99614.31;;;4.81;73.71
41140;BME280;26881;48.784;9.192;2023-02-15T22:04:42;99606.94;;;4.59;74.46
41140;BME280;26881;48.784;9.192;2023-02-15T22:10:04;99613.38;;;4.38;75.31
41140;BME280;26881;48.784;9.192;2023-02-15T22:15:30;99620.16;;;4.44;77.03
41140;BME280;26881;48.784;9.192;2023-02-15T22:20:54;99623.66;;;4.41;77.30
41140;BME280;26881;48.784;9.192;2023-02-15T22:26:21;99630.91;;;4.22;77.98
41140;BME280;26881;48.784;9.192;2023-02-15T22:31:43;99636.78;;;4.32;77.37
41140;BME280;26881;48.784;9.192;2023-02-15T22:37:07;99621.22;;;4.32;76.77
41140;BME280;26881;48.784;9.192;2023-02-15T22:42:29;99621.38;;;4.23;77.91
41140;BME280;26881;48.784;9.192;2023-02-15T22:47:52;99617.81;;;4.30;76.61
41140;BME280;26881;48.784;9.192;2023-02-15T22:53:15;99625.66;;;4.24;76.27
41140;BME280;26881;48.784;9.192;2023-02-15T22:58:36;99625.72;;;4.21;76.19
41140;BME280;26881;48.784;9.192;2023-02-15T23:03:58;99617.91;;;4.24;75.78
41140;BME280;26881;48.784;9.192;2023-02-15T23:09:24;99638.66;;;4.22;76.06
41140;BME280;26881;48.784;9.192;2023-02-15T23:14:45;99626.84;;;4.06;76.97
41140;BME280;26881;48.784;9.192;2023-02-15T23:20:13;99635.38;;;4.11;76.79
41140;BME280;26881;48.784;9.192;2023-02-15T23:25:34;99636.22;;;4.12;76.25
41140;BME280;26881;48.784;9.192;2023-02-15T23:30:57;99627.88;;;3.94;75.94
41140;BME280;26881;48.784;9.192;2023-02-15T23:36:37;99637.41;;;3.92;76.29
41140;BME280;26881;48.784;9.192;2023-02-15T23:42:01;99648.41;;;4.07;75.50
41140;BME280;26881;48.784;9.192;2023-02-15T23:47:29;99642.31;;;4.08;75.87
41140;BME280;26881;48.784;9.192;2023-02-15T23:53:10;99648.44;;;4.04;76.38
41140;BME280;26881;48.784;9.192;2023-02-15T23:58:35;99642.50;;;3.97;76.79
